createdAt,value
2023-03-02T00:01:46.954Z,8.30
2023-03-02T00:04:24.178Z,12.77
2023-03-02T00:06:55.197Z,11.30
2023-03-02T00:09:22.381Z,10.17
2023-03-02T00:11:50.468Z,11.00
2023-03-02T00:14:17.594Z,9.70
2023-03-02T00:16:44.415Z,6.03
2023-03-02T00:19:11.241Z,11.10
2023-03-02T00:21:38.012Z,4.83
2023-03-02T00:24:05.464Z,10.77
2023-03-02T00:26:36.931Z,12.60
2023-03-02T00:29:04.410Z,8.80
2023-03-02T00:31:31.216Z,11.57
2023-03-02T00:33:58.104Z,11.03
2023-03-02T00:36:25.545Z,3.23
2023-03-02T00:38:52.648Z,8.80
2023-03-02T00:41:23.750Z,10.40
2023-03-02T00:43:51.275Z,8.87
2023-03-02T00:46:24.252Z,9.67
2023-03-02T00:48:52.448Z,4.03
2023-03-02T00:51:20.047Z,11.50
2023-03-02T00:53:47.350Z,9.77
2023-03-02T00:56:14.290Z,10.27
2023-03-02T00:58:41.088Z,13.23
2023-03-02T01:01:14.029Z,11.83
2023-03-02T01:03:40.841Z,10.93
2023-03-02T01:06:20.239Z,11.70
2023-03-02T01:08:47.620Z,11.67
2023-03-02T01:11:22.568Z,10.53
2023-03-02T01:13:50.448Z,13.67
2023-03-02T01:16:17.687Z,13.20
2023-03-02T01:18:44.650Z,11.70
2023-03-02T01:21:15.292Z,11.57
2023-03-02T01:23:42.674Z,12.80
2023-03-02T01:26:09.855Z,14.00
2023-03-02T01:28:36.751Z,15.70
2023-03-02T01:31:04.598Z,10.77
2023-03-02T01:33:32.862Z,13.00
2023-03-02T01:36:00.219Z,13.30
2023-03-02T01:38:27.970Z,12.23
2023-03-02T01:40:54.857Z,13.87
2023-03-02T01:43:21.782Z,13.00
2023-03-02T01:45:55.016Z,10.57
2023-03-02T01:48:39.041Z,13.77
2023-03-02T01:51:07.548Z,9.87
2023-03-02T01:53:37.067Z,13.27
2023-03-02T01:56:05.679Z,15.30
2023-03-02T01:58:37.437Z,15.57
2023-03-02T02:01:06.459Z,11.97
2023-03-02T02:03:34.016Z,13.20
2023-03-02T02:06:30.584Z,11.93
2023-03-02T02:09:01.150Z,11.30
2023-03-02T02:11:28.009Z,12.97
2023-03-02T02:13:59.593Z,12.40
2023-03-02T02:16:33.271Z,12.90
2023-03-02T02:19:02.091Z,14.33
2023-03-02T02:21:29.765Z,14.23
2023-03-02T02:24:22.490Z,15.50
2023-03-02T02:26:54.515Z,12.80
2023-03-02T02:29:30.254Z,12.93
2023-03-02T02:32:26.402Z,12.93
2023-03-02T02:35:20.168Z,13.00
2023-03-02T02:37:55.390Z,12.70
2023-03-02T02:40:58.574Z,13.57
2023-03-02T02:43:29.883Z,15.27
2023-03-02T02:45:59.014Z,12.93
2023-03-02T02:48:31.116Z,14.13
2023-03-02T02:51:03.123Z,14.87
2023-03-02T02:53:43.880Z,11.80
2023-03-02T02:56:13.105Z,13.77
2023-03-02T02:58:54.132Z,12.63
2023-03-02T03:01:26.783Z,12.63
2023-03-02T03:03:59.103Z,12.57
2023-03-02T03:06:38.204Z,14.07
2023-03-02T03:09:07.240Z,12.93
2023-03-02T03:11:37.619Z,12.00
2023-03-02T03:14:15.431Z,11.60
2023-03-02T03:16:45.584Z,14.20
2023-03-02T03:19:24.445Z,12.53
2023-03-02T03:21:55.827Z,13.30
2023-03-02T03:24:24.593Z,13.03
2023-03-02T03:26:54.112Z,16.10
2023-03-02T03:29:24.187Z,13.83
2023-03-02T03:31:54.283Z,14.50
2023-03-02T03:34:23.175Z,13.30
2023-03-02T03:36:51.015Z,14.30
2023-03-02T03:39:19.194Z,13.17
2023-03-02T03:41:46.360Z,12.90
2023-03-02T03:44:13.131Z,13.73
2023-03-02T03:46:39.953Z,13.57
2023-03-02T03:49:06.754Z,14.03
2023-03-02T03:51:35.185Z,15.43
2023-03-02T03:54:07.954Z,13.73
2023-03-02T03:56:43.094Z,12.10
2023-03-02T03:59:13.708Z,17.67
2023-03-02T04:01:48.065Z,15.73
2023-03-02T04:04:26.484Z,14.13
2023-03-02T04:06:54.563Z,12.93
2023-03-02T04:09:23.180Z,16.90
2023-03-02T04:11:53.356Z,15.03
2023-03-02T04:14:22.468Z,15.43
2023-03-02T04:16:49.851Z,11.40
2023-03-02T04:19:17.640Z,10.00
2023-03-02T04:21:48.483Z,14.77
2023-03-02T04:24:16.237Z,12.90
2023-03-02T04:26:44.635Z,12.47
2023-03-02T04:29:13.478Z,14.13
2023-03-02T04:31:41.331Z,17.70
2023-03-02T04:34:09.192Z,12.83
2023-03-02T04:36:39.741Z,15.50
2023-03-02T04:39:07.967Z,17.47
2023-03-02T04:41:35.707Z,16.17
2023-03-02T04:44:02.928Z,18.20
2023-03-02T04:46:30.007Z,15.83
2023-03-02T04:48:56.883Z,15.00
2023-03-02T04:51:28.267Z,16.20
2023-03-02T04:53:59.998Z,16.37
2023-03-02T04:56:27.252Z,14.30
2023-03-02T04:58:54.796Z,10.40
2023-03-02T05:01:22.080Z,17.00
2023-03-02T05:03:49.115Z,14.10
2023-03-02T05:06:17.094Z,14.97
2023-03-02T05:08:45.130Z,17.33
2023-03-02T05:11:24.555Z,12.80
2023-03-02T05:13:59.309Z,15.00
2023-03-02T05:16:32.589Z,17.80
2023-03-02T05:19:01.908Z,31.30
2023-03-02T05:21:28.800Z,24.40
2023-03-02T05:23:55.709Z,23.63
2023-03-02T05:26:23.141Z,25.23
2023-03-02T05:28:52.343Z,19.60
2023-03-02T05:31:31.790Z,20.33
2023-03-02T05:33:58.708Z,15.23
2023-03-02T05:36:25.546Z,17.80
2023-03-02T05:38:52.417Z,18.37
2023-03-02T05:41:19.464Z,17.83
2023-03-02T05:43:46.272Z,16.57
2023-03-02T05:46:13.086Z,16.60
2023-03-02T05:48:39.936Z,14.33
2023-03-02T05:51:06.729Z,19.37
2023-03-02T05:53:33.493Z,20.27
2023-03-02T05:56:01.218Z,18.63
2023-03-02T05:58:28.060Z,18.73
2023-03-02T06:00:54.843Z,18.67
2023-03-02T06:03:21.734Z,17.43
2023-03-02T06:05:50.986Z,17.53
2023-03-02T06:08:19.648Z,22.10
2023-03-02T06:10:46.582Z,21.63
2023-03-02T06:13:13.478Z,19.33
2023-03-02T06:15:40.591Z,19.33
2023-03-02T06:18:07.430Z,19.10
2023-03-02T06:20:34.364Z,16.83
2023-03-02T06:23:01.124Z,17.50
2023-03-02T06:25:28.002Z,16.67
2023-03-02T06:27:54.797Z,18.63
2023-03-02T06:30:25.308Z,20.50
2023-03-02T06:32:52.362Z,17.90
2023-03-02T06:35:19.575Z,15.70
2023-03-02T06:37:46.471Z,21.50
2023-03-02T06:40:14.240Z,15.60
2023-03-02T06:42:42.698Z,15.40
2023-03-02T06:45:11.317Z,14.30
2023-03-02T06:47:38.578Z,17.10
2023-03-02T06:50:06.251Z,19.23
2023-03-02T06:52:33.308Z,16.23
2023-03-02T06:55:00.099Z,17.60
2023-03-02T06:57:33.573Z,19.23
2023-03-02T07:00:09.592Z,18.33
2023-03-02T07:02:37.596Z,19.77
2023-03-02T07:05:06.538Z,18.60
2023-03-02T07:07:33.387Z,18.13
2023-03-02T07:10:00.168Z,19.53
2023-03-02T07:12:27.070Z,18.57
2023-03-02T07:14:54.092Z,41.33
2023-03-02T07:17:21.034Z,24.87
2023-03-02T07:19:47.894Z,24.13
2023-03-02T07:22:14.695Z,35.57
2023-03-02T07:24:42.607Z,32.87
2023-03-02T07:27:12.291Z,32.20
2023-03-02T07:29:42.806Z,31.57
2023-03-02T07:32:12.326Z,25.67
2023-03-02T07:34:39.656Z,31.27
2023-03-02T07:37:06.584Z,27.87
2023-03-02T07:39:33.362Z,21.67
2023-03-02T07:42:01.986Z,23.47
2023-03-02T07:44:28.913Z,18.07
2023-03-02T07:46:56.021Z,18.47
2023-03-02T07:49:22.937Z,19.57
2023-03-02T07:51:49.980Z,24.73
2023-03-02T07:54:16.760Z,24.27
2023-03-02T07:56:44.018Z,23.97
2023-03-02T07:59:12.851Z,19.40
2023-03-02T08:01:40.586Z,18.13
2023-03-02T08:04:07.523Z,20.37
2023-03-02T08:06:34.311Z,15.50
2023-03-02T08:09:04.016Z,13.97
2023-03-02T08:11:31.117Z,11.20
2023-03-02T08:14:03.337Z,13.97
2023-03-02T08:16:30.836Z,15.37
2023-03-02T08:18:59.793Z,10.47
2023-03-02T08:21:28.464Z,12.50
2023-03-02T08:23:55.411Z,9.57
2023-03-02T08:26:22.423Z,8.03
2023-03-02T08:28:49.342Z,11.87
2023-03-02T08:31:16.494Z,10.67
2023-03-02T08:33:44.607Z,9.77
2023-03-02T08:36:16.253Z,10.33
2023-03-02T08:38:44.311Z,13.27
2023-03-02T08:41:15.678Z,14.67
2023-03-02T08:43:42.577Z,7.97
2023-03-02T08:46:11.740Z,10.00
2023-03-02T08:48:39.159Z,12.73
2023-03-02T08:51:11.674Z,11.93
2023-03-02T08:53:42.781Z,9.43
2023-03-02T08:56:22.767Z,9.77
2023-03-02T08:58:51.164Z,7.63
2023-03-02T09:01:25.126Z,8.27
2023-03-02T09:03:52.479Z,13.83
2023-03-02T09:06:19.552Z,10.03
2023-03-02T09:08:46.972Z,10.33
2023-03-02T09:11:13.914Z,7.83
2023-03-02T09:13:40.895Z,7.60
2023-03-02T09:16:09.102Z,8.57
2023-03-02T09:22:36.126Z,7.97
2023-03-02T09:25:06.108Z,7.87
2023-03-02T09:27:51.150Z,8.33
2023-03-02T09:30:18.545Z,7.95
2023-03-02T09:32:45.786Z,8.47
2023-03-02T09:35:12.938Z,8.33
2023-03-02T09:37:42.234Z,8.75
2023-03-02T09:40:23.244Z,7.40
2023-03-02T09:43:22.292Z,6.00
2023-03-02T09:46:10.321Z,9.55
2023-03-02T09:49:20.843Z,9.77
2023-03-02T09:52:05.184Z,5.53
2023-03-02T09:54:32.449Z,8.33
2023-03-02T09:56:59.976Z,5.40
2023-03-02T09:59:41.834Z,8.30
2023-03-02T10:02:35.379Z,6.23
2023-03-02T10:05:13.136Z,5.20
2023-03-02T10:07:40.679Z,6.13
2023-03-02T10:10:18.229Z,6.17
2023-03-02T10:13:09.237Z,5.80
2023-03-02T10:15:55.334Z,5.13
2023-03-02T10:18:48.375Z,7.40
2023-03-02T10:21:46.012Z,5.43
2023-03-02T10:24:40.569Z,3.70
2023-03-02T10:27:31.251Z,11.53
2023-03-02T10:30:07.521Z,5.03
2023-03-02T10:32:45.114Z,5.17
2023-03-02T10:35:24.330Z,5.07
2023-03-02T10:38:00.365Z,5.63
2023-03-02T10:41:02.910Z,6.53
2023-03-02T10:44:01.445Z,6.93
2023-03-02T10:46:43.459Z,7.70
2023-03-02T10:49:35.984Z,7.33
2023-03-02T10:52:18.860Z,4.83
2023-03-02T10:54:47.337Z,4.60
2023-03-02T10:57:41.839Z,5.47
2023-03-02T11:00:22.382Z,7.30
2023-03-02T11:03:02.392Z,6.43
2023-03-02T11:05:38.184Z,2.93
2023-03-02T11:08:10.472Z,4.37
2023-03-02T11:10:53.802Z,5.27
2023-03-02T11:13:32.434Z,6.33
2023-03-02T11:16:21.716Z,4.93
2023-03-02T11:19:02.190Z,6.57
2023-03-02T11:21:43.431Z,7.30
2023-03-02T11:24:28.481Z,6.80
2023-03-02T11:27:02.887Z,7.90
2023-03-02T11:29:56.177Z,4.82
2023-03-02T11:32:44.712Z,9.80
2023-03-02T11:35:34.527Z,6.63
2023-03-02T11:38:27.047Z,7.78
2023-03-02T11:41:36.568Z,6.53
2023-03-02T11:44:17.769Z,5.33
2023-03-02T11:46:49.397Z,4.13
2023-03-02T11:49:32.261Z,4.15
2023-03-02T11:52:00.621Z,5.00
2023-03-02T11:54:43.435Z,5.35
2023-03-02T11:57:28.279Z,3.03
2023-03-02T11:59:58.463Z,2.03
2023-03-02T12:02:26.964Z,5.68
2023-03-02T12:05:21.677Z,6.33
2023-03-02T12:08:07.462Z,2.88
2023-03-02T12:10:55.114Z,3.20
2023-03-02T12:13:38.724Z,3.57
2023-03-02T12:16:37.826Z,3.90
2023-03-02T12:19:28.810Z,6.47
2023-03-02T12:22:10.609Z,7.88
2023-03-02T12:24:42.208Z,3.20
2023-03-02T12:27:20.865Z,4.10
2023-03-02T12:30:18.307Z,4.53
2023-03-02T12:32:59.878Z,4.70
2023-03-02T12:35:30.086Z,2.87
2023-03-02T12:38:32.528Z,7.00
2023-03-02T12:42:10.849Z,4.53
2023-03-02T12:45:54.922Z,4.85
2023-03-02T12:49:06.686Z,4.68
2023-03-02T12:51:54.097Z,5.10
2023-03-02T12:54:34.642Z,3.80
2023-03-02T12:57:17.941Z,5.37
2023-03-02T12:59:58.222Z,3.75
2023-03-02T13:02:32.740Z,3.15
2023-03-02T13:05:07.418Z,4.88
2023-03-02T13:07:43.395Z,4.10
2023-03-02T13:10:28.144Z,6.35
2023-03-02T13:12:55.137Z,2.05
2023-03-02T13:15:21.971Z,3.92
2023-03-02T13:18:00.434Z,6.53
2023-03-02T13:20:30.089Z,4.57
2023-03-02T13:22:57.099Z,7.30
2023-03-02T13:25:29.032Z,5.18
2023-03-02T13:28:04.452Z,2.83
2023-03-02T13:30:32.928Z,6.32
2023-03-02T13:33:03.768Z,5.18
2023-03-02T13:35:35.552Z,7.30
2023-03-02T13:38:14.030Z,5.13
2023-03-02T13:40:48.355Z,7.22
2023-03-02T13:43:30.086Z,4.65
2023-03-02T13:45:59.172Z,3.83
2023-03-02T13:48:30.230Z,5.40
2023-03-02T13:51:02.869Z,6.82
2023-03-02T13:53:34.694Z,4.88
2023-03-02T13:56:02.714Z,7.57
2023-03-02T13:58:38.180Z,2.88
2023-03-02T14:01:06.543Z,5.30
2023-03-02T14:03:33.835Z,6.30
2023-03-02T14:06:00.983Z,4.38
2023-03-02T14:08:28.082Z,4.00
2023-03-02T14:10:59.852Z,4.55
2023-03-02T14:13:38.275Z,3.17
2023-03-02T14:16:05.837Z,5.70
2023-03-02T14:18:48.259Z,2.70
2023-03-02T14:21:25.170Z,2.97
2023-03-02T14:23:54.120Z,4.32
2023-03-02T14:26:34.714Z,3.53
2023-03-02T14:29:10.505Z,3.47
2023-03-02T14:31:37.369Z,5.25
2023-03-02T14:34:04.205Z,4.38
2023-03-02T14:36:34.739Z,5.82
2023-03-02T14:39:05.598Z,3.17
2023-03-02T14:41:38.296Z,6.18
2023-03-02T14:44:11.602Z,3.75
2023-03-02T14:46:38.445Z,5.03
2023-03-02T14:49:05.647Z,5.65
2023-03-02T14:51:36.859Z,3.60
2023-03-02T14:54:09.540Z,6.32
2023-03-02T14:56:37.866Z,8.45
2023-03-02T14:59:05.043Z,4.75
2023-03-02T15:01:32.120Z,3.92
2023-03-02T15:03:59.226Z,7.38
2023-03-02T15:06:33.367Z,3.58
2023-03-02T15:09:01.650Z,4.28
2023-03-02T15:11:29.666Z,4.10
2023-03-02T15:13:56.746Z,4.57
2023-03-02T15:16:23.720Z,3.78
2023-03-02T15:18:52.358Z,4.75
2023-03-02T15:21:22.986Z,3.97
2023-03-02T15:23:50.969Z,4.15
2023-03-02T15:26:18.345Z,7.30
2023-03-02T15:28:47.937Z,5.20
2023-03-02T15:31:17.443Z,3.15
2023-03-02T15:33:47.512Z,4.82
2023-03-02T15:36:14.663Z,8.48
2023-03-02T15:38:41.593Z,3.65
2023-03-02T15:41:13.319Z,5.35
2023-03-02T15:43:40.285Z,4.30
2023-03-02T15:46:09.453Z,5.20
2023-03-02T15:48:37.680Z,4.60
2023-03-02T15:51:08.158Z,5.78
2023-03-02T15:53:38.492Z,4.25
2023-03-02T15:56:08.743Z,4.65
2023-03-02T15:58:36.433Z,3.85
2023-03-02T16:01:11.544Z,2.72
2023-03-02T16:03:38.820Z,5.38
2023-03-02T16:06:08.343Z,3.75
2023-03-02T16:08:36.732Z,4.03
2023-03-02T16:11:07.602Z,4.57
2023-03-02T16:13:35.263Z,5.25
2023-03-02T16:16:06.510Z,4.03
2023-03-02T16:18:33.428Z,6.03
2023-03-02T16:21:02.354Z,5.63
2023-03-02T16:23:29.182Z,5.65
2023-03-02T16:26:07.083Z,5.65
2023-03-02T16:28:33.893Z,7.57
2023-03-02T16:31:11.613Z,5.80
2023-03-02T16:33:40.512Z,6.90
2023-03-02T16:36:08.975Z,7.90
2023-03-02T16:38:36.946Z,6.33
2023-03-02T16:41:17.672Z,6.33
2023-03-02T16:43:57.529Z,7.17
2023-03-02T16:46:28.643Z,9.67
2023-03-02T16:48:56.513Z,5.67
2023-03-02T16:51:23.940Z,5.75
2023-03-02T16:53:51.271Z,6.40
2023-03-02T16:56:18.096Z,8.93
2023-03-02T16:58:45.228Z,6.27
2023-03-02T17:01:19.987Z,7.83
2023-03-02T17:03:49.263Z,6.53
2023-03-02T17:06:19.564Z,4.83
2023-03-02T17:08:46.594Z,7.00
2023-03-02T17:11:13.554Z,10.57
2023-03-02T17:13:40.399Z,8.00
2023-03-02T17:16:07.604Z,7.07
2023-03-02T17:18:34.718Z,5.67
2023-03-02T17:21:03.268Z,7.10
2023-03-02T17:23:31.334Z,6.97
2023-03-02T17:25:58.271Z,5.40
2023-03-02T17:28:25.414Z,8.27
2023-03-02T17:30:52.506Z,7.93
2023-03-02T17:33:19.454Z,7.47
2023-03-02T17:35:46.809Z,7.77
2023-03-02T17:38:15.113Z,9.40
2023-03-02T17:40:42.797Z,7.27
2023-03-02T17:43:10.118Z,6.73
2023-03-02T17:45:38.319Z,7.67
2023-03-02T17:48:05.656Z,11.33
2023-03-02T17:50:32.729Z,10.43
2023-03-02T17:53:04.837Z,8.17
2023-03-02T17:55:31.753Z,11.33
2023-03-02T17:57:58.656Z,14.13
2023-03-02T18:00:25.744Z,17.13
2023-03-02T18:02:53.287Z,12.47
2023-03-02T18:05:21.788Z,10.50
2023-03-02T18:07:48.950Z,12.50
2023-03-02T18:10:16.168Z,9.90
2023-03-02T18:12:43.043Z,18.60
2023-03-02T18:15:11.280Z,33.60
2023-03-02T18:17:38.077Z,42.57
2023-03-02T18:20:05.804Z,25.03
2023-03-02T18:22:32.801Z,30.37
2023-03-02T18:24:59.619Z,19.27
2023-03-02T18:27:26.564Z,17.80
2023-03-02T18:29:53.813Z,16.87
2023-03-02T18:32:20.962Z,17.93
2023-03-02T18:34:48.034Z,19.97
2023-03-02T18:37:15.323Z,10.87
2023-03-02T18:39:42.163Z,13.47
2023-03-02T18:42:10.505Z,16.53
2023-03-02T18:44:38.599Z,15.83
2023-03-02T18:47:07.484Z,18.13
2023-03-02T18:49:34.774Z,19.70
2023-03-02T18:52:05.714Z,22.87
2023-03-02T18:54:33.082Z,18.33
2023-03-02T18:57:01.610Z,25.93
2023-03-02T18:59:29.423Z,15.97
2023-03-02T19:01:57.268Z,15.20
2023-03-02T19:04:26.650Z,11.53
2023-03-02T19:06:56.010Z,12.83
2023-03-02T19:09:23.890Z,13.70
2023-03-02T19:11:50.714Z,12.40
2023-03-02T19:14:17.919Z,18.63
2023-03-02T19:16:45.018Z,15.87
2023-03-02T19:19:11.927Z,18.80
2023-03-02T19:21:38.936Z,18.33
2023-03-02T19:24:06.300Z,18.43
2023-03-02T19:26:33.910Z,16.47
2023-03-02T19:29:00.751Z,20.77
2023-03-02T19:31:28.377Z,25.13
2023-03-02T19:33:55.263Z,16.63
2023-03-02T19:36:22.030Z,21.77
2023-03-02T19:38:48.953Z,19.63
2023-03-02T19:41:19.137Z,21.53
2023-03-02T19:43:46.912Z,18.83
2023-03-02T19:46:15.693Z,19.90
2023-03-02T19:48:43.198Z,18.30
2023-03-02T19:51:12.026Z,15.47
2023-03-02T19:53:40.249Z,16.20
2023-03-02T19:56:12.838Z,15.47
2023-03-02T19:58:53.350Z,14.07
2023-03-02T20:01:22.047Z,14.57
2023-03-02T20:03:51.773Z,17.83
2023-03-02T20:06:21.113Z,20.67
2023-03-02T20:08:48.152Z,15.73
2023-03-02T20:11:16.352Z,19.87
2023-03-02T20:13:43.958Z,22.27
2023-03-02T20:16:13.833Z,26.90
2023-03-02T20:18:41.494Z,33.97
2023-03-02T20:21:08.466Z,32.87
2023-03-02T20:23:35.363Z,27.40
2023-03-02T20:26:03.345Z,23.03
2023-03-02T20:28:32.899Z,20.33
2023-03-02T20:31:06.118Z,19.67
2023-03-02T20:33:38.576Z,19.50
2023-03-02T20:36:07.378Z,16.90
2023-03-02T20:38:41.239Z,15.00
2023-03-02T20:41:11.521Z,15.57
2023-03-02T20:43:41.105Z,21.53
2023-03-02T20:46:10.644Z,17.57
2023-03-02T20:48:37.537Z,17.63
2023-03-02T20:51:04.795Z,17.80
2023-03-02T20:53:31.691Z,18.03
2023-03-02T20:55:58.857Z,16.90
2023-03-02T20:58:25.855Z,22.27
2023-03-02T21:00:53.775Z,17.27
2023-03-02T21:03:20.619Z,20.27
2023-03-02T21:05:47.715Z,21.50
2023-03-02T21:08:15.182Z,21.67
2023-03-02T21:10:43.866Z,19.73
2023-03-02T21:13:11.870Z,18.90
2023-03-02T21:15:40.959Z,21.27
2023-03-02T21:18:07.918Z,18.63
2023-03-02T21:20:35.923Z,24.33
2023-03-02T21:23:04.222Z,28.03
2023-03-02T21:25:31.449Z,26.10
2023-03-02T21:27:58.833Z,21.90
2023-03-02T21:30:30.214Z,21.53
2023-03-02T21:32:57.329Z,25.60
2023-03-02T21:35:25.037Z,22.93
2023-03-02T21:37:58.028Z,21.73
2023-03-02T21:40:31.956Z,22.20
2023-03-02T21:43:00.365Z,23.00
2023-03-02T21:45:28.958Z,23.73
2023-03-02T21:47:55.971Z,20.27
2023-03-02T21:50:27.523Z,25.17
2023-03-02T21:52:55.512Z,23.47
2023-03-02T21:55:22.642Z,20.03
2023-03-02T21:57:49.476Z,21.33
2023-03-02T22:00:25.829Z,20.73
2023-03-02T22:02:53.202Z,27.87
2023-03-02T22:05:20.653Z,21.00
2023-03-02T22:07:48.106Z,22.47
2023-03-02T22:10:34.482Z,25.97
2023-03-02T22:13:15.366Z,23.93
2023-03-02T22:15:42.308Z,29.17
2023-03-02T22:18:15.451Z,26.57
2023-03-02T22:20:47.379Z,28.17
2023-03-02T22:23:21.365Z,26.83
2023-03-02T22:25:55.765Z,28.80
2023-03-02T22:28:26.449Z,27.93
2023-03-02T22:30:58.703Z,25.97
2023-03-02T22:33:28.768Z,25.07
2023-03-02T22:36:14.714Z,26.23
2023-03-02T22:38:41.597Z,26.83
2023-03-02T22:41:21.564Z,26.37
2023-03-02T22:43:49.499Z,28.80
2023-03-02T22:46:20.173Z,26.37
2023-03-02T22:48:50.399Z,24.70
2023-03-02T22:51:22.850Z,28.93
2023-03-02T22:53:56.518Z,30.40
2023-03-02T22:56:29.848Z,32.03
2023-03-02T22:59:06.565Z,24.87
2023-03-02T23:01:43.701Z,24.90
2023-03-02T23:04:32.020Z,24.23
2023-03-02T23:07:02.610Z,29.77
2023-03-02T23:09:35.634Z,31.10
2023-03-02T23:12:15.686Z,30.93
2023-03-02T23:14:51.849Z,30.20
2023-03-02T23:17:26.980Z,33.73
2023-03-02T23:19:53.922Z,42.17
2023-03-02T23:22:20.920Z,44.10
2023-03-02T23:24:48.258Z,47.23
2023-03-02T23:27:15.505Z,41.93
2023-03-02T23:29:42.457Z,41.30
2023-03-02T23:32:09.766Z,35.10
2023-03-02T23:34:36.637Z,28.33
2023-03-02T23:37:03.942Z,32.40
2023-03-02T23:39:30.764Z,28.17
2023-03-02T23:42:02.058Z,28.13
2023-03-02T23:44:28.998Z,33.73
2023-03-02T23:46:55.772Z,26.97
2023-03-02T23:49:22.683Z,32.27
2023-03-02T23:51:49.587Z,31.07
2023-03-02T23:54:16.402Z,30.00
2023-03-02T23:56:43.338Z,27.97
2023-03-02T23:59:10.197Z,29.43
